• Join FlightAware (Why Join?)
  • Login
  • US Flag 
07:14AM EST


 

Airport Tracker/Info


-or-


 

Live Flight TrackerFlight Track Log ✈ SWA983 ✈ 15-Apr-2013 ✈ KISP - KTPA

Flight Track Log - Related Links

Times and Time Zones

All times are in EDT time to prevent confusion due to time zone crossing. See the SWA983 flight status page for this flight to view local times or setup timezone preferences in your user account.

Time Position Orientation Groundspeed Altitude Reporting Facility
EDT Latitude Longitude Course Direction KTS MPH feet Rate Location/Type
04:55PM 40.7458 -73.0894 123° Southeast 105 121 3,900  Level Boston Center
04:56PM 40.7631 -72.9936 77° East 146 168 4,600 2,400 Climbing Boston Center
04:57PM 40.7614 -72.9086 91° East 195 224 8,700 4,020 Climbing Boston Center
04:58PM 40.7514 -72.8153 98° East 233 268 12,600 3,600 Climbing Boston Center
04:59PM 40.6972 -72.7714 148° Southeast 183 211 16,000 2,280 Climbing Boston Center
05:00PM 40.5745 -72.7178 237° Southwest  Level FlightAware Approximate
05:00PM 40.6636 -72.8806 248° West 146 168 17,200  Level Boston Center
05:02PM 40.6192 -73.0431 250° West 295 339 20,500 2,640 Climbing New York Center
05:03PM 40.5831 -73.1758 250° West 347 399 23,500 2,760 Climbing New York Center
05:04PM 40.5447 -73.3136 250° West 386 444 26,000 2,220 Climbing New York Center
05:05PM 40.5186 -73.4603 257° West 405 466 28,000 1,800 Climbing New York Center
05:06PM 40.4900 -73.6119 256° West 423 487 29,700 1,920 Climbing New York Center
05:07PM 40.4592 -73.7661 255° West 431 496 31,900 2,640 Climbing New York Center
05:08PM 40.4256 -73.9281 255° West 431 496 34,900 2,760 Climbing New York Center
05:09PM 40.3969 -74.0686 255° West 424 488 37,300 1,500 Climbing New York Center
05:10PM 40.3697 -74.2117 256° West 410 472 38,000 300 Climbing New York Center
05:11PM 40.3428 -74.3492 256° West 410 472 38,000 540 Level New York Center
05:12PM 40.3156 -74.4892 256° West 405 466 39,100 960 Climbing New York Center
05:13PM 40.2883 -74.6239 255° West 400 460 40,000 420 Climbing New York Center
05:14PM 40.2586 -74.7608 254° West 395 455 40,000  Level New York Center
05:15PM 40.2331 -74.8981 256° West 395 455 40,000  Level New York Center
05:16PM 40.2053 -75.0322 255° West 395 455 40,000  Level New York Center
05:17PM 40.1775 -75.1692 255° West 395 455 40,000  Level New York Center
05:18PM 40.1475 -75.3003 253° West 395 455 40,000  Level New York Center
05:19PM 40.1056 -75.4144 244° Southwest 395 455 40,000  Level New York Center
05:20PM 40.0303 -75.5206 227° Southwest 390 449 40,000  Level New York Center
05:21PM 39.9531 -75.6289 227° Southwest 400 460 40,000  Level New York Center
05:22PM 39.8839 -75.7378 230° Southwest 405 466 40,000  Level New York Center
05:23PM 39.7569 -75.9342 230° Southwest 402 463 40,000  Level Washington Center
05:24PM 39.6856 -76.0444 230° Southwest 402 463 40,000  Level Washington Center
05:25PM 39.6144 -76.1544 230° Southwest 402 463 40,000  Level Washington Center
05:26PM 39.5472 -76.2644 232° Southwest 397 457 40,000  Level Washington Center
05:27PM 39.4756 -76.3686 228° Southwest 397 457 40,000  Level Washington Center
05:28PM 39.4083 -76.4753 231° Southwest 397 457 40,000  Level Washington Center
05:29PM 39.3386 -76.5872 231° Southwest 402 463 40,000  Level Washington Center
05:30PM 39.2689 -76.6961 230° Southwest 402 463 40,000  Level Washington Center
05:31PM 39.1969 -76.8047 229° Southwest 402 463 40,000  Level Washington Center
05:32PM 39.1292 -76.9133 231° Southwest 402 463 40,000  Level Washington Center
05:33PM 39.0550 -77.0244 229° Southwest 402 463 40,000  Level Washington Center
05:34PM 38.9703 -77.1214 222° Southwest 402 463 40,000  Level Washington Center
05:35PM 38.8836 -77.2131 219° Southwest 402 463 40,000  Level Washington Center
05:36PM 38.7969 -77.3069 220° Southwest 407 468 40,000  Level Washington Center
05:37PM 38.7122 -77.4008 221° Southwest 413 475 40,000  Level Washington Center
05:38PM 38.6339 -77.4839 220° Southwest 413 475 40,000  Level Washington Center
05:39PM 38.5489 -77.5772 221° Southwest 413 475 40,000  Level Washington Center
05:40PM 38.4617 -77.6706 220° Southwest 413 475 40,000  Level Washington Center
05:41PM 38.3789 -77.7608 221° Southwest 413 475 40,000  Level Washington Center
05:42PM 38.2939 -77.8536 221° Southwest 413 475 40,000  Level Washington Center
05:43PM 38.2064 -77.9461 220° Southwest 413 475 40,000  Level Washington Center
05:44PM 38.1233 -78.0358 220° Southwest 405 466 40,000  Level Washington Center
05:45PM 38.0358 -78.1281 220° Southwest 410 472 40,000  Level Washington Center
05:46PM 37.9528 -78.2175 220° Southwest 410 472 40,000  Level Washington Center
05:47PM 37.8611 -78.3036 217° Southwest 410 472 40,000  Level Washington Center
05:48PM 37.7717 -78.3869 216° Southwest 410 472 40,000  Level Washington Center
05:49PM 37.6819 -78.4731 217° Southwest 410 472 40,000  Level Washington Center
05:50PM 37.5817 -78.5636 216° Southwest 405 466 40,000  Level Washington Center
05:51PM 37.4942 -78.6464 217° Southwest 400 460 40,000  Level Washington Center
05:52PM 37.4044 -78.7292 216° Southwest 400 460 40,000  Level Washington Center
05:53PM 37.3144 -78.8142 217° Southwest 400 460 40,000  Level Washington Center
05:54PM 37.2247 -78.8967 216° Southwest 400 460 40,000  Level Washington Center
05:55PM 37.1411 -78.9739 216° Southwest 400 460 40,000  Level Washington Center
05:56PM 37.0511 -79.0583 217° Southwest 405 466 40,000  Level Washington Center
05:57PM 36.9589 -79.1425 216° Southwest 405 466 40,000  Level Washington Center
05:58PM 36.8708 -79.2242 217° Southwest 405 466 40,000  Level Washington Center
05:59PM 36.7786 -79.3081 216° Southwest 405 466 40,000  Level Washington Center
06:00PM 36.6797 -79.3992 216° Southwest 405 466 40,000  Level Washington Center
06:01PM 36.5894 -79.4828 217° Southwest 405 466 40,000  Level Washington Center
06:02PM 36.4992 -79.5658 216° Southwest 405 466 40,000  Level Washington Center
06:03PM 36.4064 -79.6517 217° Southwest 405 466 40,000  Level Washington Center
06:04PM 36.3164 -79.7306 215° Southwest 408 470 40,000  Level Atlanta Center
06:05PM 36.2333 -79.8019 215° Southwest 403 464 40,000  Level Atlanta Center
06:06PM 36.1442 -79.8811 216° Southwest 403 464 40,000  Level Atlanta Center
06:07PM 36.0553 -79.9603 216° Southwest 403 464 40,000  Level Atlanta Center
06:08PM 35.9528 -80.0217 206° Southwest 403 464 40,000  Level Atlanta Center
06:09PM 35.8339 -80.0789 201° Southwest 411 473 40,000  Level Atlanta Center
06:10PM 35.7311 -80.1325 203° Southwest 411 473 40,000  Level Atlanta Center
06:11PM 35.6286 -80.1858 203° Southwest 411 473 40,000  Level Atlanta Center
06:12PM 35.5197 -80.2419 203° Southwest 412 474 40,000  Level Atlanta Center
06:13PM 35.4128 -80.2928 201° Southwest 412 474 40,000  Level Atlanta Center
06:14PM 35.3058 -80.3461 202° Southwest 412 474 40,000  Level Atlanta Center
06:16PM 35.1058 -80.4442 202° Southwest 406 467 40,000  Level Jacksonville Center
06:17PM 35.0028 -80.4953 202° Southwest 406 467 40,000  Level Jacksonville Center
06:18PM 34.8953 -80.5489 202° Southwest 411 473 40,000  Level Jacksonville Center
06:19PM 34.7942 -80.6022 203° Southwest 411 473 40,000  Level Jacksonville Center
06:20PM 34.6886 -80.6531 202° Southwest 405 466 40,000  Level Jacksonville Center
06:21PM 34.5789 -80.7061 202° Southwest 412 474 40,000  Level Jacksonville Center
06:22PM 34.4839 -80.7539 203° Southwest 425 489 40,000  Level Jacksonville Center
06:23PM 34.3781 -80.7969 199° South 425 489 40,000  Level Jacksonville Center
06:24PM 34.2625 -80.8625 205° Southwest 415 478 40,000  Level Jacksonville Center
06:25PM 34.1569 -80.9150 202° Southwest 410 472 40,000  Level Jacksonville Center
06:26PM 34.0492 -80.9653 201° Southwest 410 472 40,000  Level Jacksonville Center
06:27PM 33.9414 -81.0175 202° Southwest 410 472 40,000  Level Jacksonville Center
06:28PM 33.8419 -81.0622 200° South 416 479 40,000  Level Jacksonville Center
06:29PM 33.7217 -81.1247 203° Southwest 421 484 40,000  Level Jacksonville Center
06:30PM 33.6119 -81.1792 202° Southwest 426 490 40,000  Level Jacksonville Center
06:31PM 33.5042 -81.2311 202° Southwest 431 496 40,000  Level Jacksonville Center
06:32PM 33.3961 -81.2828 202° Southwest 431 496 40,000  Level Jacksonville Center
06:33PM 33.2883 -81.3369 203° Southwest 431 496 40,000  Level Jacksonville Center
06:34PM 33.1783 -81.3886 201° Southwest 431 496 40,000  Level Jacksonville Center
06:35PM 33.0683 -81.4450 203° Southwest 431 496 40,000  Level Jacksonville Center
06:36PM 32.9606 -81.4986 203° Southwest 431 496 40,000  Level Jacksonville Center
06:37PM 32.8544 -81.5472 201° Southwest 431 496 40,000  Level Jacksonville Center
06:38PM 32.7422 -81.5958 200° South 426 490 40,000  Level Jacksonville Center
06:39PM 32.6278 -81.6247 192° South 431 496 40,000  Level Jacksonville Center
06:40PM 32.5194 -81.6508 191° South 431 496 40,000  Level Jacksonville Center
06:41PM 32.3903 -81.6822 192° South 431 496 40,000  Level Jacksonville Center
06:42PM 32.2717 -81.7131 192° South 431 496 40,000  Level Jacksonville Center
06:43PM 32.1656 -81.7392 192° South 431 496 40,000 -420 Level Jacksonville Center
06:44PM 32.0383 -81.7700 192° South 419 482 39,200 -900 Descending Jacksonville Center
06:45PM 31.9322 -81.7958 192° South 431 496 38,300 -660 Descending Jacksonville Center
06:46PM 31.8050 -81.8267 192° South 431 496 38,000 -180 Descending Jacksonville Center
06:47PM 31.6883 -81.8550 192° South 431 496 38,000  Level Jacksonville Center
06:48PM 31.5861 -81.8806 192° South 431 496 38,000 -120 Level Jacksonville Center
06:49PM 31.4569 -81.9111 191° South 431 496 37,800 -600 Descending Jacksonville Center
06:50PM 31.3528 -81.9414 194° South 431 496 36,800 -960 Descending Jacksonville Center
06:51PM 31.2383 -81.9692 192° South 431 496 35,900 -420 Descending Jacksonville Center
06:52PM 31.1214 -81.9947 191° South 431 496 36,000  Climbing Jacksonville Center
06:53PM 31.0047 -82.0225 192° South 431 496 36,000  Level Jacksonville Center
06:54PM 30.8858 -82.0500 191° South 431 496 36,000  Level Jacksonville Center
06:55PM 30.7733 -82.0803 193° South 431 496 36,000  Level Jacksonville Center
06:56PM 30.6567 -82.1078 191° South 431 496 36,000  Level Jacksonville Center
06:57PM 30.5419 -82.1281 189° South 431 496 36,000  Level Jacksonville Center
06:58PM 30.4231 -82.1578 192° South 431 496 36,000 -60 Level Jacksonville Center
06:59PM 30.3064 -82.1853 192° South 431 496 35,900 -600 Descending Jacksonville Center
07:00PM 30.1894 -82.2150 192° South 431 496 34,900 -1,020 Descending Jacksonville Center
07:01PM 30.0747 -82.2397 191° South 431 496 33,900 -1,080 Descending Jacksonville Center
07:02PM 29.9456 -82.2764 194° South 431 496 32,800 -1,260 Descending Jacksonville Center
07:03PM 29.8289 -82.3036 191° South 431 496 31,500 -1,620 Descending Jacksonville Center
07:04PM 29.7286 -82.3258 191° South 426 490 29,600 -2,100 Descending Jacksonville Center
07:05PM 29.6078 -82.3528 191° South 415 478 27,400 -1,920 Descending Jacksonville Center
07:06PM 29.4950 -82.3508 179° South 410 472 25,900 -1,200 Descending Jacksonville Center
07:07PM 29.3864 -82.3350 173° South 399 459 25,100 -1,080 Descending Jacksonville Center
07:08PM 29.2778 -82.3211 174° South 404 465 23,800 -1,740 Descending Jacksonville Center
07:09PM 29.1692 -82.3100 175° South 404 465 21,700 -2,100 Descending Jacksonville Center
07:10PM 29.0647 -82.2986 175° South 399 459 19,600 -2,040 Descending Jacksonville Center
07:11PM 28.9667 -82.2850 173° South 379 436 17,700 -2,100 Descending Jacksonville Center
07:12PM 28.8683 -82.2761 175° South 368 423 15,500 -1,860 Descending Jacksonville Center
07:14PM 28.7167 -82.2667 177° South 342 394 13,000 -960 Descending Tampa TRACON
07:15PM 28.6167 -82.2500 172° South 325 374 13,100 -420 Climbing Tampa TRACON
07:16PM 28.5500 -82.2500 180° South 325 374 12,200 -1,140 Descending Tampa TRACON
07:17PM 28.4667 -82.2500 180° South 322 371 11,100 -1,200 Descending Tampa TRACON
07:18PM 28.3667 -82.2500 180° South 319 367 10,000 -540 Descending Tampa TRACON
07:19PM 28.3000 -82.3167 221° Southwest 316 364 10,100  Climbing Tampa TRACON
07:20PM 28.2000 -82.3500 196° South 313 360 10,000 -720 Descending Tampa TRACON
07:21PM 28.1333 -82.3667 192° South 297 342 8,600 -1,440 Descending Tampa TRACON
07:22PM 28.0500 -82.4000 199° South 289 333 7,200 -1,560 Descending Tampa TRACON
07:23PM 27.9833 -82.4167 192° South 287 330 5,700 -1,800 Descending Tampa TRACON
07:24PM 27.9000 -82.4333 190° South 275 316 3,600 -1,500 Descending Tampa TRACON
07:25PM 27.8500 -82.4833 221° Southwest 252 290 2,600 -480 Descending Tampa TRACON
07:26PM 27.8500 -82.5333 270° West 167 192 2,600 -600 Level Tampa TRACON
07:27PM 27.8833 -82.5500 336° Northwest 148 170 1,500 -960 Descending Tampa TRACON
07:28PM 27.9167 -82.5500 360° North 135 155 800 -720 Descending Tampa TRACON
07:30PM 27.9667 -82.5167 350° North  Level FlightAware Approximate
07:37PM 27.9755 -82.5332 350° North  Level Estimated
07:38PM 27.9755 -82.5332 350° North  Level Estimated